sensor_id;sensor_type;location;lat;lon;timestamp;temperature;humidity
46976;DHT22;32724;51.094;6.996;2022-09-09T00:00:11;16.40;99.90
46976;DHT22;32724;51.094;6.996;2022-09-09T00:02:37;16.30;99.90
46976;DHT22;32724;51.094;6.996;2022-09-09T00:07:48;16.10;99.90
46976;DHT22;32724;51.094;6.996;2022-09-09T00:10:17;16.00;99.90
46976;DHT22;32724;51.094;6.996;2022-09-09T00:15:33;15.90;99.90
46976;DHT22;32724;51.094;6.996;2022-09-09T00:23:17;15.80;99.90
46976;DHT22;32724;51.094;6.996;2022-09-09T00:25:50;15.80;99.90
46976;DHT22;32724;51.094;6.996;2022-09-09T00:28:20;15.80;99.90
46976;DHT22;32724;51.094;6.996;2022-09-09T00:30:46;15.80;99.90
46976;DHT22;32724;51.094;6.996;2022-09-09T00:33:15;15.70;99.90
46976;DHT22;32724;51.094;6.996;2022-09-09T00:35:45;15.80;99.90
46976;DHT22;32724;51.094;6.996;2022-09-09T00:40:39;15.80;99.90
46976;DHT22;32724;51.094;6.996;2022-09-09T00:48:38;15.90;99.90
46976;DHT22;32724;51.094;6.996;2022-09-09T00:51:10;15.90;99.90
46976;DHT22;32724;51.094;6.996;2022-09-09T00:53:58;15.90;99.90
46976;DHT22;32724;51.094;6.996;2022-09-09T00:56:32;15.90;99.90
46976;DHT22;32724;51.094;6.996;2022-09-09T00:59:07;15.90;99.90
46976;DHT22;32724;51.094;6.996;2022-09-09T01:01:37;15.90;99.90
46976;DHT22;32724;51.094;6.996;2022-09-09T01:04:05;15.90;99.90
46976;DHT22;32724;51.094;6.996;2022-09-09T01:06:34;15.90;99.90
46976;DHT22;32724;51.094;6.996;2022-09-09T01:14:14;15.90;99.90
46976;DHT22;32724;51.094;6.996;2022-09-09T01:16:44;15.80;99.90
46976;DHT22;32724;51.094;6.996;2022-09-09T01:19:10;15.80;99.90
46976;DHT22;32724;51.094;6.996;2022-09-09T01:24:20;15.70;99.90
46976;DHT22;32724;51.094;6.996;2022-09-09T01:26:48;15.70;99.90
46976;DHT22;32724;51.094;6.996;2022-09-09T01:29:16;15.70;99.90
46976;DHT22;32724;51.094;6.996;2022-09-09T01:31:51;15.70;99.90
46976;DHT22;32724;51.094;6.996;2022-09-09T01:34:17;15.70;99.90
46976;DHT22;32724;51.094;6.996;2022-09-09T01:36:44;15.70;99.90
46976;DHT22;32724;51.094;6.996;2022-09-09T01:39:11;15.60;99.90
46976;DHT22;32724;51.094;6.996;2022-09-09T01:41:37;15.50;99.90
46976;DHT22;32724;51.094;6.996;2022-09-09T01:44:03;15.50;99.90
46976;DHT22;32724;51.094;6.996;2022-09-09T01:46:30;15.40;99.90
46976;DHT22;32724;51.094;6.996;2022-09-09T01:48:55;15.40;99.90
46976;DHT22;32724;51.094;6.996;2022-09-09T01:51:21;15.40;99.90
46976;DHT22;32724;51.094;6.996;2022-09-09T01:53:47;15.40;99.90
46976;DHT22;32724;51.094;6.996;2022-09-09T01:56:31;15.40;99.90
46976;DHT22;32724;51.094;6.996;2022-09-09T02:06:43;15.60;99.90
46976;DHT22;32724;51.094;6.996;2022-09-09T02:09:11;15.60;99.90
46976;DHT22;32724;51.094;6.996;2022-09-09T02:11:38;15.60;99.90
46976;DHT22;32724;51.094;6.996;2022-09-09T02:14:05;15.60;99.90
46976;DHT22;32724;51.094;6.996;2022-09-09T02:16:39;15.70;99.90
46976;DHT22;32724;51.094;6.996;2022-09-09T02:21:34;15.80;99.90
46976;DHT22;32724;51.094;6.996;2022-09-09T02:24:02;15.80;99.90
46976;DHT22;32724;51.094;6.996;2022-09-09T02:26:29;15.80;99.90
46976;DHT22;32724;51.094;6.996;2022-09-09T02:28:56;15.80;99.90
46976;DHT22;32724;51.094;6.996;2022-09-09T02:31:24;15.90;99.90
46976;DHT22;32724;51.094;6.996;2022-09-09T02:33:57;15.90;99.90
46976;DHT22;32724;51.094;6.996;2022-09-09T02:36:25;15.90;99.90
46976;DHT22;32724;51.094;6.996;2022-09-09T02:38:51;15.90;99.90
46976;DHT22;32724;51.094;6.996;2022-09-09T02:44:14;15.90;99.90
46976;DHT22;32724;51.094;6.996;2022-09-09T02:49:22;15.90;99.90
46976;DHT22;32724;51.094;6.996;2022-09-09T02:51:53;15.90;99.90
46976;DHT22;32724;51.094;6.996;2022-09-09T02:54:27;15.90;99.90
46976;DHT22;32724;51.094;6.996;2022-09-09T02:56:56;15.90;99.90
46976;DHT22;32724;51.094;6.996;2022-09-09T02:59:26;15.90;99.90
46976;DHT22;32724;51.094;6.996;2022-09-09T03:01:52;15.90;99.90
46976;DHT22;32724;51.094;6.996;2022-09-09T03:04:18;15.90;99.90
46976;DHT22;32724;51.094;6.996;2022-09-09T03:06:43;16.00;99.90
46976;DHT22;32724;51.094;6.996;2022-09-09T03:09:09;15.90;99.90
46976;DHT22;32724;51.094;6.996;2022-09-09T03:11:36;15.90;99.90
46976;DHT22;32724;51.094;6.996;2022-09-09T03:14:02;16.00;99.90
46976;DHT22;32724;51.094;6.996;2022-09-09T03:16:27;15.90;99.90
46976;DHT22;32724;51.094;6.996;2022-09-09T03:18:52;15.90;99.90
46976;DHT22;32724;51.094;6.996;2022-09-09T03:21:18;15.90;99.90
46976;DHT22;32724;51.094;6.996;2022-09-09T03:23:43;15.80;99.90
46976;DHT22;32724;51.094;6.996;2022-09-09T03:26:10;15.80;99.90
46976;DHT22;32724;51.094;6.996;2022-09-09T03:28:35;15.80;99.90
46976;DHT22;32724;51.094;6.996;2022-09-09T03:31:01;15.90;99.90
46976;DHT22;32724;51.094;6.996;2022-09-09T03:33:27;15.80;99.90
46976;DHT22;32724;51.094;6.996;2022-09-09T03:35:53;15.80;99.90
46976;DHT22;32724;51.094;6.996;2022-09-09T03:38:22;15.80;99.90
46976;DHT22;32724;51.094;6.996;2022-09-09T03:40:52;15.80;99.90
46976;DHT22;32724;51.094;6.996;2022-09-09T03:43:23;15.70;99.90
46976;DHT22;32724;51.094;6.996;2022-09-09T03:45:49;15.70;99.90
46976;DHT22;32724;51.094;6.996;2022-09-09T03:48:15;15.70;99.90
46976;DHT22;32724;51.094;6.996;2022-09-09T03:50:47;15.70;99.90
46976;DHT22;32724;51.094;6.996;2022-09-09T03:53:13;15.70;99.90
46976;DHT22;32724;51.094;6.996;2022-09-09T03:55:39;15.70;99.90
46976;DHT22;32724;51.094;6.996;2022-09-09T03:58:06;15.70;99.90
46976;DHT22;32724;51.094;6.996;2022-09-09T04:00:33;15.80;99.90
46976;DHT22;32724;51.094;6.996;2022-09-09T04:02:58;15.80;99.90
46976;DHT22;32724;51.094;6.996;2022-09-09T04:05:24;15.80;99.90
46976;DHT22;32724;51.094;6.996;2022-09-09T04:07:49;15.80;99.90
46976;DHT22;32724;51.094;6.996;2022-09-09T04:10:16;15.80;99.90
46976;DHT22;32724;51.094;6.996;2022-09-09T04:12:42;15.80;99.90
46976;DHT22;32724;51.094;6.996;2022-09-09T04:15:07;15.80;99.90
46976;DHT22;32724;51.094;6.996;2022-09-09T04:17:33;15.90;99.90
46976;DHT22;32724;51.094;6.996;2022-09-09T04:19:58;15.90;99.90
46976;DHT22;32724;51.094;6.996;2022-09-09T04:22:24;15.90;99.90
46976;DHT22;32724;51.094;6.996;2022-09-09T04:24:49;15.90;99.90
46976;DHT22;32724;51.094;6.996;2022-09-09T04:27:15;15.90;99.90
46976;DHT22;32724;51.094;6.996;2022-09-09T04:29:40;15.90;99.90
46976;DHT22;32724;51.094;6.996;2022-09-09T04:32:06;15.90;99.90
46976;DHT22;32724;51.094;6.996;2022-09-09T04:34:31;15.90;99.90
46976;DHT22;32724;51.094;6.996;2022-09-09T04:36:58;16.00;99.90
46976;DHT22;32724;51.094;6.996;2022-09-09T04:39:24;16.00;99.90
46976;DHT22;32724;51.094;6.996;2022-09-09T04:41:49;15.90;99.90
46976;DHT22;32724;51.094;6.996;2022-09-09T04:44:15;15.90;99.90
46976;DHT22;32724;51.094;6.996;2022-09-09T04:46:40;15.90;99.90
46976;DHT22;32724;51.094;6.996;2022-09-09T04:49:06;16.00;99.90
46976;DHT22;32724;51.094;6.996;2022-09-09T04:51:32;15.90;99.90
46976;DHT22;32724;51.094;6.996;2022-09-09T04:53:57;15.90;99.90
46976;DHT22;32724;51.094;6.996;2022-09-09T04:56:23;16.00;99.90
46976;DHT22;32724;51.094;6.996;2022-09-09T04:58:48;15.90;99.90
46976;DHT22;32724;51.094;6.996;2022-09-09T05:01:18;16.00;99.90
46976;DHT22;32724;51.094;6.996;2022-09-09T05:03:44;16.00;99.90
46976;DHT22;32724;51.094;6.996;2022-09-09T05:06:16;16.00;99.90
46976;DHT22;32724;51.094;6.996;2022-09-09T05:08:43;16.00;99.90
46976;DHT22;32724;51.094;6.996;2022-09-09T05:11:23;16.00;99.90
46976;DHT22;32724;51.094;6.996;2022-09-09T05:13:49;16.00;99.90
46976;DHT22;32724;51.094;6.996;2022-09-09T05:16:16;15.90;99.90
46976;DHT22;32724;51.094;6.996;2022-09-09T05:18:41;16.00;99.90
46976;DHT22;32724;51.094;6.996;2022-09-09T05:21:11;16.00;99.90
46976;DHT22;32724;51.094;6.996;2022-09-09T05:23:37;16.00;99.90
46976;DHT22;32724;51.094;6.996;2022-09-09T05:26:03;16.00;99.90
46976;DHT22;32724;51.094;6.996;2022-09-09T05:28:29;16.00;99.90
46976;DHT22;32724;51.094;6.996;2022-09-09T05:30:59;16.10;99.90
46976;DHT22;32724;51.094;6.996;2022-09-09T05:33:26;16.10;99.90
46976;DHT22;32724;51.094;6.996;2022-09-09T05:36:02;16.10;99.90
46976;DHT22;32724;51.094;6.996;2022-09-09T05:38:29;16.10;99.90
46976;DHT22;32724;51.094;6.996;2022-09-09T05:40:54;16.10;99.90
46976;DHT22;32724;51.094;6.996;2022-09-09T05:43:22;16.10;99.90
46976;DHT22;32724;51.094;6.996;2022-09-09T05:45:47;16.10;99.90
46976;DHT22;32724;51.094;6.996;2022-09-09T05:48:14;16.10;99.90
46976;DHT22;32724;51.094;6.996;2022-09-09T05:50:41;16.10;99.90
46976;DHT22;32724;51.094;6.996;2022-09-09T05:53:08;16.10;99.90
46976;DHT22;32724;51.094;6.996;2022-09-09T05:55:33;16.10;99.90
46976;DHT22;32724;51.094;6.996;2022-09-09T05:57:59;16.00;99.90
46976;DHT22;32724;51.094;6.996;2022-09-09T06:00:25;16.10;99.90
46976;DHT22;32724;51.094;6.996;2022-09-09T06:02:51;16.10;99.90
46976;DHT22;32724;51.094;6.996;2022-09-09T06:05:20;16.10;99.90
46976;DHT22;32724;51.094;6.996;2022-09-09T06:07:48;16.00;99.90
46976;DHT22;32724;51.094;6.996;2022-09-09T06:10:13;16.10;99.90
46976;DHT22;32724;51.094;6.996;2022-09-09T06:12:39;16.10;99.90
46976;DHT22;32724;51.094;6.996;2022-09-09T06:15:04;16.10;99.90
46976;DHT22;32724;51.094;6.996;2022-09-09T06:17:30;16.10;99.90
46976;DHT22;32724;51.094;6.996;2022-09-09T06:19:55;16.10;99.90
46976;DHT22;32724;51.094;6.996;2022-09-09T06:22:21;16.20;99.90
46976;DHT22;32724;51.094;6.996;2022-09-09T06:24:47;16.20;99.90
46976;DHT22;32724;51.094;6.996;2022-09-09T06:27:12;16.20;99.90
46976;DHT22;32724;51.094;6.996;2022-09-09T06:29:39;16.20;99.90
46976;DHT22;32724;51.094;6.996;2022-09-09T06:32:04;16.20;99.90
46976;DHT22;32724;51.094;6.996;2022-09-09T06:34:30;16.30;99.90
46976;DHT22;32724;51.094;6.996;2022-09-09T06:36:55;16.30;99.90
46976;DHT22;32724;51.094;6.996;2022-09-09T06:39:23;16.30;99.90
46976;DHT22;32724;51.094;6.996;2022-09-09T06:41:48;16.40;99.90
46976;DHT22;32724;51.094;6.996;2022-09-09T06:44:15;16.60;99.90
46976;DHT22;32724;51.094;6.996;2022-09-09T06:46:41;16.70;99.90
46976;DHT22;32724;51.094;6.996;2022-09-09T06:49:08;16.80;99.90
46976;DHT22;32724;51.094;6.996;2022-09-09T06:51:35;16.90;99.90
46976;DHT22;32724;51.094;6.996;2022-09-09T06:54:01;16.90;99.90
46976;DHT22;32724;51.094;6.996;2022-09-09T06:58:56;16.80;99.90
46976;DHT22;32724;51.094;6.996;2022-09-09T07:01:27;16.90;99.90
46976;DHT22;32724;51.094;6.996;2022-09-09T07:03:54;17.10;99.90
46976;DHT22;32724;51.094;6.996;2022-09-09T07:06:21;17.30;99.90
46976;DHT22;32724;51.094;6.996;2022-09-09T07:08:55;17.60;99.90
46976;DHT22;32724;51.094;6.996;2022-09-09T07:11:23;17.90;99.90
46976;DHT22;32724;51.094;6.996;2022-09-09T07:13:49;18.30;99.90
46976;DHT22;32724;51.094;6.996;2022-09-09T07:16:16;18.40;99.90
46976;DHT22;32724;51.094;6.996;2022-09-09T07:18:42;18.50;99.90
46976;DHT22;32724;51.094;6.996;2022-09-09T07:21:11;18.80;99.90
46976;DHT22;32724;51.094;6.996;2022-09-09T07:23:37;19.00;99.90
46976;DHT22;32724;51.094;6.996;2022-09-09T07:26:07;19.10;99.90
46976;DHT22;32724;51.094;6.996;2022-09-09T07:28:33;19.10;99.90
46976;DHT22;32724;51.094;6.996;2022-09-09T07:31:00;19.00;99.90
46976;DHT22;32724;51.094;6.996;2022-09-09T07:33:29;19.00;99.90
46976;DHT22;32724;51.094;6.996;2022-09-09T07:36:02;19.00;99.90
46976;DHT22;32724;51.094;6.996;2022-09-09T07:38:28;19.10;99.90
46976;DHT22;32724;51.094;6.996;2022-09-09T07:41:02;19.10;99.90
46976;DHT22;32724;51.094;6.996;2022-09-09T07:43:27;19.00;99.90
46976;DHT22;32724;51.094;6.996;2022-09-09T07:45:59;19.00;99.90
46976;DHT22;32724;51.094;6.996;2022-09-09T07:48:26;19.00;99.90
46976;DHT22;32724;51.094;6.996;2022-09-09T07:50:52;19.00;99.90
46976;DHT22;32724;51.094;6.996;2022-09-09T07:53:17;19.00;99.90
46976;DHT22;32724;51.094;6.996;2022-09-09T07:55:45;19.20;99.90
46976;DHT22;32724;51.094;6.996;2022-09-09T07:58:10;19.20;99.90
46976;DHT22;32724;51.094;6.996;2022-09-09T08:00:36;19.30;99.90
46976;DHT22;32724;51.094;6.996;2022-09-09T08:03:01;19.20;99.90
46976;DHT22;32724;51.094;6.996;2022-09-09T08:05:27;19.40;99.90
46976;DHT22;32724;51.094;6.996;2022-09-09T08:07:52;19.50;99.90
46976;DHT22;32724;51.094;6.996;2022-09-09T08:10:18;19.60;99.90
46976;DHT22;32724;51.094;6.996;2022-09-09T08:12:43;19.70;99.90
46976;DHT22;32724;51.094;6.996;2022-09-09T08:15:09;19.80;99.90
46976;DHT22;32724;51.094;6.996;2022-09-09T08:17:34;19.90;99.90
46976;DHT22;32724;51.094;6.996;2022-09-09T08:20:00;19.80;99.90
46976;DHT22;32724;51.094;6.996;2022-09-09T08:22:30;19.50;99.90
46976;DHT22;32724;51.094;6.996;2022-09-09T08:24:55;19.40;99.90
46976;DHT22;32724;51.094;6.996;2022-09-09T08:27:22;19.40;99.90
46976;DHT22;32724;51.094;6.996;2022-09-09T08:29:47;19.40;99.90
46976;DHT22;32724;51.094;6.996;2022-09-09T08:32:13;19.50;99.90
46976;DHT22;32724;51.094;6.996;2022-09-09T08:34:38;19.50;99.90
46976;DHT22;32724;51.094;6.996;2022-09-09T08:37:04;19.60;99.90
46976;DHT22;32724;51.094;6.996;2022-09-09T08:39:29;19.60;99.90
46976;DHT22;32724;51.094;6.996;2022-09-09T08:47:00;19.40;99.90
46976;DHT22;32724;51.094;6.996;2022-09-09T08:49:36;19.40;99.90
46976;DHT22;32724;51.094;6.996;2022-09-09T08:52:08;19.30;99.90
46976;DHT22;32724;51.094;6.996;2022-09-09T08:54:37;19.40;99.90
46976;DHT22;32724;51.094;6.996;2022-09-09T08:57:03;19.70;99.90
46976;DHT22;32724;51.094;6.996;2022-09-09T08:59:32;19.90;99.90
46976;DHT22;32724;51.094;6.996;2022-09-09T09:02:18;19.70;99.90
46976;DHT22;32724;51.094;6.996;2022-09-09T09:12:44;20.30;99.90
46976;DHT22;32724;51.094;6.996;2022-09-09T09:15:11;20.50;99.90
46976;DHT22;32724;51.094;6.996;2022-09-09T09:17:41;20.40;99.90
46976;DHT22;32724;51.094;6.996;2022-09-09T09:20:11;20.50;99.90
46976;DHT22;32724;51.094;6.996;2022-09-09T09:22:51;20.50;99.90
46976;DHT22;32724;51.094;6.996;2022-09-09T09:27:47;20.70;99.90
46976;DHT22;32724;51.094;6.996;2022-09-09T09:30:15;20.90;99.90
46976;DHT22;32724;51.094;6.996;2022-09-09T09:32:51;20.90;99.90
46976;DHT22;32724;51.094;6.996;2022-09-09T09:35:17;21.00;99.90
46976;DHT22;32724;51.094;6.996;2022-09-09T09:37:43;21.00;99.90
46976;DHT22;32724;51.094;6.996;2022-09-09T09:40:14;21.10;99.90
46976;DHT22;32724;51.094;6.996;2022-09-09T09:45:16;20.90;99.90
46976;DHT22;32724;51.094;6.996;2022-09-09T09:47:43;20.80;99.90
46976;DHT22;32724;51.094;6.996;2022-09-09T09:50:16;20.80;99.90
46976;DHT22;32724;51.094;6.996;2022-09-09T09:52:42;20.90;99.90
46976;DHT22;32724;51.094;6.996;2022-09-09T09:55:18;20.70;99.90
46976;DHT22;32724;51.094;6.996;2022-09-09T09:57:43;20.70;99.90
46976;DHT22;32724;51.094;6.996;2022-09-09T10:00:14;20.70;99.90
46976;DHT22;32724;51.094;6.996;2022-09-09T10:02:41;20.80;99.90
46976;DHT22;32724;51.094;6.996;2022-09-09T10:05:18;20.90;99.90
46976;DHT22;32724;51.094;6.996;2022-09-09T10:07:45;21.10;99.90
46976;DHT22;32724;51.094;6.996;2022-09-09T10:10:20;21.30;99.90
46976;DHT22;32724;51.094;6.996;2022-09-09T10:17:54;22.10;99.90
46976;DHT22;32724;51.094;6.996;2022-09-09T10:28:21;21.90;99.90
46976;DHT22;32724;51.094;6.996;2022-09-09T10:30:59;21.80;99.90
46976;DHT22;32724;51.094;6.996;2022-09-09T10:33:30;21.90;99.90
46976;DHT22;32724;51.094;6.996;2022-09-09T10:36:01;21.90;99.90
46976;DHT22;32724;51.094;6.996;2022-09-09T10:38:39;21.90;99.90
46976;DHT22;32724;51.094;6.996;2022-09-09T10:46:17;22.10;99.90
46976;DHT22;32724;51.094;6.996;2022-09-09T10:48:46;22.20;99.90
46976;DHT22;32724;51.094;6.996;2022-09-09T10:54:07;22.30;99.90
46976;DHT22;32724;51.094;6.996;2022-09-09T10:56:38;22.20;99.90
46976;DHT22;32724;51.094;6.996;2022-09-09T10:59:07;21.90;99.90
46976;DHT22;32724;51.094;6.996;2022-09-09T11:04:21;22.10;99.90
46976;DHT22;32724;51.094;6.996;2022-09-09T11:06:52;22.20;99.90
46976;DHT22;32724;51.094;6.996;2022-09-09T11:09:23;22.20;99.90
46976;DHT22;32724;51.094;6.996;2022-09-09T11:11:52;22.20;99.90
46976;DHT22;32724;51.094;6.996;2022-09-09T11:17:13;22.20;99.90
46976;DHT22;32724;51.094;6.996;2022-09-09T11:19:41;22.10;99.90
46976;DHT22;32724;51.094;6.996;2022-09-09T11:24:41;21.80;99.90
46976;DHT22;32724;51.094;6.996;2022-09-09T11:32:12;21.90;99.90
46976;DHT22;32724;51.094;6.996;2022-09-09T11:42:32;21.20;99.90
46976;DHT22;32724;51.094;6.996;2022-09-09T11:44:58;21.10;99.90
46976;DHT22;32724;51.094;6.996;2022-09-09T11:47:33;21.00;99.90
46976;DHT22;32724;51.094;6.996;2022-09-09T11:52:37;21.10;99.90
46976;DHT22;32724;51.094;6.996;2022-09-09T11:55:11;21.30;99.90
46976;DHT22;32724;51.094;6.996;2022-09-09T11:57:37;21.50;99.90
46976;DHT22;32724;51.094;6.996;2022-09-09T12:00:03;21.80;99.90
46976;DHT22;32724;51.094;6.996;2022-09-09T12:02:29;21.70;99.90
46976;DHT22;32724;51.094;6.996;2022-09-09T12:05:02;21.60;99.90
46976;DHT22;32724;51.094;6.996;2022-09-09T12:07:35;21.50;99.90
46976;DHT22;32724;51.094;6.996;2022-09-09T12:12:33;20.90;99.90
46976;DHT22;32724;51.094;6.996;2022-09-09T12:17:37;20.90;99.90
46976;DHT22;32724;51.094;6.996;2022-09-09T12:20:13;20.90;99.90
46976;DHT22;32724;51.094;6.996;2022-09-09T12:25:26;20.80;99.90
46976;DHT22;32724;51.094;6.996;2022-09-09T12:28:00;20.70;99.90
46976;DHT22;32724;51.094;6.996;2022-09-09T12:33:12;20.20;99.90
46976;DHT22;32724;51.094;6.996;2022-09-09T12:35:38;20.10;99.90
46976;DHT22;32724;51.094;6.996;2022-09-09T12:38:05;20.10;99.90
46976;DHT22;32724;51.094;6.996;2022-09-09T12:40:34;20.00;99.90
46976;DHT22;32724;51.094;6.996;2022-09-09T12:43:21;19.50;99.90
46976;DHT22;32724;51.094;6.996;2022-09-09T12:45:47;18.90;99.90
46976;DHT22;32724;51.094;6.996;2022-09-09T12:48:15;18.70;99.90
46976;DHT22;32724;51.094;6.996;2022-09-09T12:50:46;18.80;99.90
46976;DHT22;32724;51.094;6.996;2022-09-09T12:53:16;18.90;99.90
46976;DHT22;32724;51.094;6.996;2022-09-09T12:55:49;19.20;99.90
46976;DHT22;32724;51.094;6.996;2022-09-09T12:58:15;19.30;99.90
46976;DHT22;32724;51.094;6.996;2022-09-09T13:00:48;19.30;99.90
46976;DHT22;32724;51.094;6.996;2022-09-09T13:03:19;19.10;99.90
46976;DHT22;32724;51.094;6.996;2022-09-09T13:05:46;18.70;99.90
46976;DHT22;32724;51.094;6.996;2022-09-09T13:08:12;18.10;99.90
46976;DHT22;32724;51.094;6.996;2022-09-09T13:10:54;17.60;99.90
46976;DHT22;32724;51.094;6.996;2022-09-09T13:13:29;17.30;99.90
46976;DHT22;32724;51.094;6.996;2022-09-09T13:15:56;17.20;99.90
46976;DHT22;32724;51.094;6.996;2022-09-09T13:18:22;17.40;99.90
46976;DHT22;32724;51.094;6.996;2022-09-09T13:20:49;17.80;99.90
46976;DHT22;32724;51.094;6.996;2022-09-09T13:23:15;18.20;99.90
46976;DHT22;32724;51.094;6.996;2022-09-09T13:25:51;18.50;99.90
46976;DHT22;32724;51.094;6.996;2022-09-09T13:28:20;19.00;99.90
46976;DHT22;32724;51.094;6.996;2022-09-09T13:30:54;19.30;99.90
46976;DHT22;32724;51.094;6.996;2022-09-09T13:33:22;19.30;99.90
46976;DHT22;32724;51.094;6.996;2022-09-09T13:35:58;19.50;99.90
46976;DHT22;32724;51.094;6.996;2022-09-09T13:38:24;19.70;99.90
46976;DHT22;32724;51.094;6.996;2022-09-09T13:41:00;19.70;99.90
46976;DHT22;32724;51.094;6.996;2022-09-09T13:43:28;19.60;99.90
46976;DHT22;32724;51.094;6.996;2022-09-09T13:45:55;19.40;99.90
46976;DHT22;32724;51.094;6.996;2022-09-09T13:48:21;19.40;99.90
46976;DHT22;32724;51.094;6.996;2022-09-09T13:50:54;19.50;99.90
46976;DHT22;32724;51.094;6.996;2022-09-09T13:53:20;19.70;99.90
46976;DHT22;32724;51.094;6.996;2022-09-09T13:55:45;19.80;99.90
46976;DHT22;32724;51.094;6.996;2022-09-09T13:58:15;19.90;99.90
46976;DHT22;32724;51.094;6.996;2022-09-09T14:00:41;20.00;99.90
46976;DHT22;32724;51.094;6.996;2022-09-09T14:03:06;20.20;99.90
46976;DHT22;32724;51.094;6.996;2022-09-09T14:05:32;20.20;99.90
46976;DHT22;32724;51.094;6.996;2022-09-09T14:07:58;20.20;99.90
46976;DHT22;32724;51.094;6.996;2022-09-09T14:10:25;20.00;99.90
46976;DHT22;32724;51.094;6.996;2022-09-09T14:12:51;20.00;99.90
46976;DHT22;32724;51.094;6.996;2022-09-09T14:15:16;19.80;99.90
46976;DHT22;32724;51.094;6.996;2022-09-09T14:17:42;19.60;99.90
46976;DHT22;32724;51.094;6.996;2022-09-09T14:20:08;19.30;99.90
46976;DHT22;32724;51.094;6.996;2022-09-09T14:22:33;18.70;99.90
46976;DHT22;32724;51.094;6.996;2022-09-09T14:24:59;18.40;99.90
46976;DHT22;32724;51.094;6.996;2022-09-09T14:27:24;18.00;99.90
46976;DHT22;32724;51.094;6.996;2022-09-09T14:29:51;17.60;99.90
46976;DHT22;32724;51.094;6.996;2022-09-09T14:32:17;17.40;99.90
46976;DHT22;32724;51.094;6.996;2022-09-09T14:34:43;17.40;99.90
46976;DHT22;32724;51.094;6.996;2022-09-09T14:37:08;17.20;99.90
46976;DHT22;32724;51.094;6.996;2022-09-09T14:39:34;17.20;99.90
46976;DHT22;32724;51.094;6.996;2022-09-09T14:41:59;17.10;99.90
46976;DHT22;32724;51.094;6.996;2022-09-09T14:44:24;16.90;99.90
46976;DHT22;32724;51.094;6.996;2022-09-09T14:46:51;16.80;99.90
46976;DHT22;32724;51.094;6.996;2022-09-09T14:49:16;16.60;99.90
46976;DHT22;32724;51.094;6.996;2022-09-09T14:51:42;16.60;99.90
46976;DHT22;32724;51.094;6.996;2022-09-09T14:54:07;16.70;99.90
46976;DHT22;32724;51.094;6.996;2022-09-09T14:56:33;16.90;99.90
46976;DHT22;32724;51.094;6.996;2022-09-09T14:59:03;17.10;99.90
46976;DHT22;32724;51.094;6.996;2022-09-09T15:01:29;17.20;99.90
46976;DHT22;32724;51.094;6.996;2022-09-09T15:03:56;17.00;99.90
46976;DHT22;32724;51.094;6.996;2022-09-09T15:06:23;17.00;99.90
46976;DHT22;32724;51.094;6.996;2022-09-09T15:08:49;17.20;99.90
46976;DHT22;32724;51.094;6.996;2022-09-09T15:11:15;17.20;99.90
46976;DHT22;32724;51.094;6.996;2022-09-09T15:13:41;17.30;99.90
46976;DHT22;32724;51.094;6.996;2022-09-09T15:16:15;17.40;99.90
46976;DHT22;32724;51.094;6.996;2022-09-09T15:18:40;17.60;99.90
46976;DHT22;32724;51.094;6.996;2022-09-09T15:21:08;17.90;99.90
46976;DHT22;32724;51.094;6.996;2022-09-09T15:23:34;17.90;99.90
46976;DHT22;32724;51.094;6.996;2022-09-09T15:26:00;18.00;99.90
46976;DHT22;32724;51.094;6.996;2022-09-09T15:28:26;18.10;99.90
46976;DHT22;32724;51.094;6.996;2022-09-09T15:30:52;18.20;99.90
46976;DHT22;32724;51.094;6.996;2022-09-09T15:33:18;18.30;99.90
46976;DHT22;32724;51.094;6.996;2022-09-09T15:35:44;18.40;99.90
46976;DHT22;32724;51.094;6.996;2022-09-09T15:38:09;18.40;99.90
46976;DHT22;32724;51.094;6.996;2022-09-09T15:40:35;18.40;99.90
46976;DHT22;32724;51.094;6.996;2022-09-09T15:43:01;18.40;99.90
46976;DHT22;32724;51.094;6.996;2022-09-09T15:45:28;18.30;99.90
46976;DHT22;32724;51.094;6.996;2022-09-09T15:47:53;18.20;99.90
46976;DHT22;32724;51.094;6.996;2022-09-09T15:50:19;18.20;99.90
46976;DHT22;32724;51.094;6.996;2022-09-09T15:52:45;18.10;99.90
46976;DHT22;32724;51.094;6.996;2022-09-09T15:55:10;18.00;99.90
46976;DHT22;32724;51.094;6.996;2022-09-09T15:57:36;17.90;99.90
46976;DHT22;32724;51.094;6.996;2022-09-09T16:00:02;17.80;99.90
46976;DHT22;32724;51.094;6.996;2022-09-09T16:02:29;17.60;99.90
46976;DHT22;32724;51.094;6.996;2022-09-09T16:04:55;17.50;99.90
46976;DHT22;32724;51.094;6.996;2022-09-09T16:07:20;17.40;99.90
46976;DHT22;32724;51.094;6.996;2022-09-09T16:09:46;17.50;99.90
46976;DHT22;32724;51.094;6.996;2022-09-09T16:12:11;17.60;99.90
46976;DHT22;32724;51.094;6.996;2022-09-09T16:14:38;17.70;99.90
46976;DHT22;32724;51.094;6.996;2022-09-09T16:17:04;17.80;99.90
46976;DHT22;32724;51.094;6.996;2022-09-09T16:19:30;17.90;99.90
46976;DHT22;32724;51.094;6.996;2022-09-09T16:21:56;18.10;99.90
46976;DHT22;32724;51.094;6.996;2022-09-09T16:24:22;18.00;99.90
46976;DHT22;32724;51.094;6.996;2022-09-09T16:26:49;18.10;99.90
46976;DHT22;32724;51.094;6.996;2022-09-09T16:29:15;18.10;99.90
46976;DHT22;32724;51.094;6.996;2022-09-09T16:31:42;18.00;99.90
46976;DHT22;32724;51.094;6.996;2022-09-09T16:34:07;17.90;99.90
46976;DHT22;32724;51.094;6.996;2022-09-09T16:36:34;17.80;99.90
46976;DHT22;32724;51.094;6.996;2022-09-09T16:39:00;17.60;99.90
46976;DHT22;32724;51.094;6.996;2022-09-09T16:41:27;17.50;99.90
46976;DHT22;32724;51.094;6.996;2022-09-09T16:43:53;17.40;99.90
46976;DHT22;32724;51.094;6.996;2022-09-09T16:46:19;17.30;99.90
46976;DHT22;32724;51.094;6.996;2022-09-09T16:48:45;17.20;99.90
46976;DHT22;32724;51.094;6.996;2022-09-09T16:51:17;17.10;99.90
46976;DHT22;32724;51.094;6.996;2022-09-09T16:53:43;17.10;99.90
46976;DHT22;32724;51.094;6.996;2022-09-09T16:56:09;17.00;99.90
46976;DHT22;32724;51.094;6.996;2022-09-09T16:58:35;17.00;99.90
46976;DHT22;32724;51.094;6.996;2022-09-09T17:01:02;17.00;99.90
46976;DHT22;32724;51.094;6.996;2022-09-09T17:03:28;17.00;99.90
46976;DHT22;32724;51.094;6.996;2022-09-09T17:05:54;17.00;99.90
46976;DHT22;32724;51.094;6.996;2022-09-09T17:08:19;17.00;99.90
46976;DHT22;32724;51.094;6.996;2022-09-09T17:10:45;17.00;99.90
46976;DHT22;32724;51.094;6.996;2022-09-09T17:13:11;17.00;99.90
46976;DHT22;32724;51.094;6.996;2022-09-09T17:15:41;17.00;99.90
46976;DHT22;32724;51.094;6.996;2022-09-09T17:18:10;17.10;99.90
46976;DHT22;32724;51.094;6.996;2022-09-09T17:20:36;17.00;99.90
46976;DHT22;32724;51.094;6.996;2022-09-09T17:23:02;17.10;99.90
46976;DHT22;32724;51.094;6.996;2022-09-09T17:25:27;17.00;99.90
46976;DHT22;32724;51.094;6.996;2022-09-09T17:27:53;17.00;99.90
46976;DHT22;32724;51.094;6.996;2022-09-09T17:30:18;17.00;99.90